Christiansted, Virgin Islands
Current Conditions -  °F | °C
As of 3:53 AM on Friday 24 Oct 2014 (Local Time) from TIST Reporting Station
Clear Clear  
Wind Chill: 79°   Ceiling: Unl
Heat Index: 83°   Visibility: 10mi
Dew Point: 76°   Wind: 6mph
Humidity: 90%   Direction: 100°E
Pressure: 29.89"   Gusts: NA
Location:  17.74°N, 64.7°W
Report Text: TIST 240753Z AUTO 10005KT 10SM CLR 26/24 A2989 RMK AO2 SLP122 T02610244 TSNO
Loading
Personal Weather Stations






























Interactive Weather Map
Tropical Storm Tracking
New forecast layout! Learn more

10-Day Weather Forecast

Advertisements
Track Severe Weather on mobile